Terminal Aerodrome Forecast
Issued by NWS

Home | Current Version | Previous Version | Text Only | Print | Product List | Glossary On
Versions: 1 2 3 4 5 6 7 8 9 10 11 12
000
FTUS46 KMTR 270500
TAFSJC
TAF
KSJC 270538Z 2706/2806 00000KT P6SM FEW080 BKN150
     FM271200 14008KT P6SM SCT080 BKN150
     FM272200 20006KT P6SM BKN200=

USA.gov is the U.S. government's official web portal to all federal, state and local government web resources and services.